Time;durP1;ratioP1;P1;durP2;ratioP2;P2;SDS_P1;SDS_P2;PMS_P1;PMS_P2;Temp;Humidity;BMP_temperature;BMP_pressure;BME280_temperature;BME280_humidity;BME280_pressure;Samples;Min_cycle;Max_cycle;Signal;HPM_P1;HPM_P2
2022/02/17 00:00:13;;;;;;;2.27;0.90;;;12.90;99.90;;;;;;5054285;28;20442;-50
2022/02/17 00:02:40;;;;;;;2.53;0.90;;;13.00;99.90;;;;;;5054409;28;20492;-50
2022/02/17 00:05:08;;;;;;;1.73;1.17;;;13.00;99.90;;;;;;5054619;28;20438;-50
2022/02/17 00:07:35;;;;;;;1.20;0.73;;;13.00;99.90;;;;;;5054747;28;20423;-50
2022/02/17 00:10:01;;;;;;;1.70;0.87;;;13.00;99.90;;;;;;5054201;28;20445;-50
2022/02/17 00:12:30;;;;;;;1.57;0.93;;;13.10;99.90;;;;;;5054184;28;20481;-50
2022/02/17 00:14:57;;;;;;;2.30;0.80;;;13.10;99.90;;;;;;5054478;28;20444;-50
2022/02/17 00:17:26;;;;;;;1.13;0.70;;;13.10;99.90;;;;;;5054177;28;20852;-50
2022/02/17 00:19:52;;;;;;;1.53;0.70;;;13.20;99.90;;;;;;5053794;28;20429;-50
2022/02/17 00:22:19;;;;;;;1.20;0.90;;;13.10;99.90;;;;;;5054132;28;20477;-50
2022/02/17 00:24:46;;;;;;;1.77;1.00;;;13.10;99.90;;;;;;5054503;28;20782;-50
2022/02/17 00:27:12;;;;;;;1.50;1.00;;;13.10;99.90;;;;;;5054098;28;20434;-50
2022/02/17 00:29:40;;;;;;;1.23;0.90;;;13.10;99.90;;;;;;5052466;28;20461;-50
2022/02/17 00:32:08;;;;;;;1.73;1.10;;;13.10;99.90;;;;;;5053739;28;20456;-50
2022/02/17 00:34:35;;;;;;;1.20;0.90;;;13.20;99.90;;;;;;5053959;28;20446;-50
2022/02/17 00:37:03;;;;;;;3.03;1.23;;;13.20;99.90;;;;;;5054038;28;20416;-50
2022/02/17 00:39:30;;;;;;;1.80;0.90;;;13.20;99.90;;;;;;5053681;28;20796;-50
2022/02/17 00:41:56;;;;;;;1.77;0.87;;;13.20;99.90;;;;;;5053681;28;20440;-50
2022/02/17 00:44:24;;;;;;;3.57;1.07;;;13.20;99.90;;;;;;5053737;28;20433;-50
2022/02/17 00:46:55;;;;;;;1.10;0.80;;;13.20;99.90;;;;;;5053788;28;20430;-50
2022/02/17 00:49:23;;;;;;;1.57;0.90;;;13.20;99.90;;;;;;5052072;28;20438;-50
2022/02/17 00:51:51;;;;;;;1.20;0.80;;;13.20;99.90;;;;;;5052304;28;20570;-50
2022/02/17 00:54:19;;;;;;;3.20;1.10;;;13.20;99.90;;;;;;5052391;28;20456;-50
2022/02/17 00:56:46;;;;;;;1.30;0.93;;;13.20;99.90;;;;;;5052342;28;20494;-50
2022/02/17 00:59:13;;;;;;;1.00;0.70;;;13.20;99.90;;;;;;5051802;28;20450;-50
2022/02/17 01:01:43;;;;;;;1.77;0.60;;;13.20;99.90;;;;;;5048774;28;20482;-50
2022/02/17 01:04:11;;;;;;;1.40;0.73;;;13.20;99.90;;;;;;5049026;28;20459;-50
2022/02/17 01:06:39;;;;;;;2.50;0.90;;;13.40;99.90;;;;;;5033529;28;20815;-50
2022/02/17 01:09:06;;;;;;;3.50;0.80;;;13.20;99.90;;;;;;5033004;28;20501;-50
2022/02/17 01:11:33;;;;;;;6.00;2.10;;;13.10;99.90;;;;;;5048681;28;20467;-50
2022/02/17 01:14:00;;;;;;;7.30;1.80;;;12.50;99.90;;;;;;5033320;28;20805;-51
2022/02/17 01:16:26;;;;;;;6.03;1.80;;;11.80;99.90;;;;;;5048928;28;20453;-50
2022/02/17 01:18:53;;;;;;;5.93;1.47;;;11.40;99.90;;;;;;5032955;28;20479;-50
2022/02/17 01:21:23;;;;;;;6.57;1.60;;;11.10;99.90;;;;;;5048551;28;20471;-50
2022/02/17 01:23:50;;;;;;;4.90;1.20;;;11.00;99.90;;;;;;5033129;28;20425;-50
2022/02/17 01:26:18;;;;;;;4.97;1.70;;;10.80;99.90;;;;;;5033009;28;20464;-50
2022/02/17 01:28:55;;;;;;;7.50;2.03;;;10.80;99.90;;;;;;5048060;28;20495;-51
2022/02/17 01:31:26;;;;;;;2.90;1.23;;;10.70;99.90;;;;;;5047905;28;20476;-50
2022/02/17 01:34:10;;;;;;;3.67;1.20;;;10.70;99.90;;;;;;5051547;28;20447;-50
2022/02/17 01:36:41;;;;;;;5.43;1.43;;;10.60;99.90;;;;;;5051501;28;20507;-50
2022/02/17 01:39:08;;;;;;;8.03;1.67;;;10.50;99.90;;;;;;5051027;28;20945;-50
2022/02/17 01:41:36;;;;;;;4.37;1.20;;;10.40;99.90;;;;;;5051412;28;20483;-49
2022/02/17 01:44:08;;;;;;;3.77;1.37;;;10.30;99.90;;;;;;5051286;28;20422;-49
2022/02/17 01:46:37;;;;;;;3.33;1.00;;;10.30;99.90;;;;;;5052583;28;20439;-50
2022/02/17 01:49:05;;;;;;;2.67;1.10;;;10.20;99.90;;;;;;5052155;28;20466;-50
2022/02/17 01:51:32;;;;;;;5.60;2.63;;;10.30;99.90;;;;;;5051228;28;20487;-49
2022/02/17 01:54:00;;;;;;;3.27;1.13;;;10.30;99.90;;;;;;5052701;28;20478;-49
2022/02/17 01:56:30;;;;;;;3.37;1.43;;;10.40;99.90;;;;;;5051195;28;20453;-50
2022/02/17 01:59:06;;;;;;;2.53;1.33;;;10.40;99.90;;;;;;5050778;28;20451;-51
2022/02/17 02:01:35;;;;;;;3.50;1.60;;;10.50;99.90;;;;;;5047470;28;20469;-50
2022/02/17 02:04:04;;;;;;;5.90;1.70;;;10.50;99.90;;;;;;5032530;28;20490;-50
2022/02/17 02:06:31;;;;;;;8.50;1.57;;;10.50;99.90;;;;;;5048026;28;20473;-49
2022/02/17 02:09:04;;;;;;;2.97;1.27;;;10.60;99.90;;;;;;5047529;28;20479;-50
2022/02/17 02:11:49;;;;;;;3.70;1.87;;;10.60;99.90;;;;;;5032640;28;20911;-49
2022/02/17 02:14:18;;;;;;;3.33;1.40;;;10.60;99.90;;;;;;5031052;28;20489;-50
2022/02/17 02:16:46;;;;;;;2.67;1.30;;;10.70;99.90;;;;;;5047806;28;20451;-50
2022/02/17 02:19:19;;;;;;;4.20;1.70;;;10.70;99.90;;;;;;5030593;28;20510;-50
2022/02/17 02:21:57;;;;;;;5.70;2.20;;;10.70;99.90;;;;;;5030679;28;20473;-50
2022/02/17 02:24:24;;;;;;;4.47;1.60;;;10.70;99.90;;;;;;5032010;28;20435;-49
2022/02/17 02:26:51;;;;;;;3.93;1.37;;;10.70;99.90;;;;;;5030631;28;20459;-50
2022/02/17 02:29:24;;;;;;;5.47;1.97;;;10.70;99.90;;;;;;5030476;28;20509;-50
2022/02/17 02:31:52;;;;;;;3.20;1.70;;;10.50;99.90;;;;;;5031038;28;20450;-49
2022/02/17 02:34:18;;;;;;;6.40;1.60;;;10.40;99.90;;;;;;5042688;28;20464;-50
2022/02/17 02:36:46;;;;;;;4.67;1.33;;;10.60;99.90;;;;;;5050792;28;20458;-50
2022/02/17 02:39:14;;;;;;;6.53;1.30;;;10.30;99.90;;;;;;5051122;28;20414;-50
2022/02/17 02:41:48;;;;;;;7.10;1.87;;;10.40;99.90;;;;;;5050077;28;20532;-50
2022/02/17 02:44:15;;;;;;;7.30;1.50;;;10.40;99.90;;;;;;5051235;28;20768;-50
2022/02/17 02:46:48;;;;;;;4.40;1.60;;;10.40;99.90;;;;;;5050662;28;20960;-50
2022/02/17 02:49:16;;;;;;;6.43;1.93;;;10.20;99.90;;;;;;5049894;28;20447;-50
2022/02/17 02:51:43;;;;;;;6.97;2.10;;;10.40;99.90;;;;;;5051514;28;21062;-50
2022/02/17 02:54:10;;;;;;;9.00;2.00;;;10.30;99.90;;;;;;5050277;28;20503;-50
2022/02/17 02:56:41;;;;;;;6.20;1.30;;;10.00;99.90;;;;;;5050221;28;20425;-50
2022/02/17 02:59:08;;;;;;;9.20;3.10;;;10.30;99.90;;;;;;5051474;28;20417;-49
2022/02/17 03:01:35;;;;;;;4.60;1.93;;;10.20;99.90;;;;;;5047677;28;20447;-50
2022/02/17 03:04:02;;;;;;;4.87;1.90;;;10.20;99.90;;;;;;5030620;28;20426;-49
2022/02/17 03:06:30;;;;;;;6.47;2.17;;;10.30;99.90;;;;;;5030862;28;20452;-49
2022/02/17 03:08:58;;;;;;;6.40;2.20;;;10.20;99.90;;;;;;5030400;28;20437;-50
2022/02/17 03:11:32;;;;;;;25.03;2.73;;;10.30;99.90;;;;;;5030228;28;20478;-50
2022/02/17 03:14:00;;;;;;;8.10;2.17;;;10.30;99.90;;;;;;5030186;28;20498;-49
2022/02/17 03:16:27;;;;;;;10.13;2.70;;;10.30;99.90;;;;;;5030247;28;20856;-50
2022/02/17 03:18:56;;;;;;;11.60;2.70;;;10.30;99.90;;;;;;5030056;28;20493;-49
2022/02/17 03:21:22;;;;;;;7.27;2.43;;;10.30;99.90;;;;;;5031563;28;20455;-50
2022/02/17 03:23:49;;;;;;;6.23;2.00;;;10.30;99.90;;;;;;5031505;28;20948;-50
2022/02/17 03:26:19;;;;;;;4.60;1.83;;;10.40;99.90;;;;;;5030074;28;20414;-50
2022/02/17 03:28:51;;;;;;;6.53;2.10;;;10.40;99.90;;;;;;5029714;28;20445;-50
2022/02/17 03:31:19;;;;;;;8.00;2.07;;;10.40;99.90;;;;;;5029997;28;21044;-50
2022/02/17 03:33:53;;;;;;;8.40;2.27;;;10.50;99.90;;;;;;5036933;28;20542;-50
2022/02/17 03:36:24;;;;;;;8.10;2.00;;;10.50;99.90;;;;;;5050023;28;20450;-50
2022/02/17 03:38:57;;;;;;;5.00;1.70;;;10.50;99.90;;;;;;5049440;28;20454;-50
2022/02/17 03:41:26;;;;;;;7.27;2.27;;;10.50;99.90;;;;;;5049687;28;20475;-50
2022/02/17 03:44:03;;;;;;;6.23;2.03;;;10.50;99.90;;;;;;5050020;28;20885;-50
2022/02/17 03:46:32;;;;;;;6.40;2.00;;;10.50;99.90;;;;;;5049799;28;20457;-50
2022/02/17 03:48:59;;;;;;;8.57;2.00;;;10.50;99.90;;;;;;5049407;28;20907;-49
2022/02/17 03:51:25;;;;;;;5.30;2.23;;;10.40;99.90;;;;;;5049828;28;20466;-50
2022/02/17 03:53:52;;;;;;;5.10;1.80;;;10.50;99.90;;;;;;5051810;28;20471;-50
2022/02/17 03:56:19;;;;;;;8.03;1.70;;;10.40;99.90;;;;;;5053509;28;20500;-50
2022/02/17 03:59:14;;;;;;;5.43;1.43;;;10.40;99.90;;;;;;5052995;28;20447;-50
2022/02/17 04:01:46;;;;;;;8.13;1.70;;;10.30;99.90;;;;;;5049882;28;20964;-50
2022/02/17 04:04:16;;;;;;;9.10;2.60;;;10.30;99.90;;;;;;5050084;28;20982;-50
2022/02/17 04:06:43;;;;;;;5.90;1.50;;;10.30;99.90;;;;;;5049954;28;21011;-50
2022/02/17 04:09:10;;;;;;;3.80;2.00;;;10.20;99.90;;;;;;5049457;28;20524;-50
2022/02/17 04:11:37;;;;;;;3.90;1.43;;;10.20;99.90;;;;;;5033192;28;20913;-50
2022/02/17 04:14:05;;;;;;;5.00;1.70;;;10.20;99.90;;;;;;5049574;28;20899;-50
2022/02/17 04:17:05;;;;;;;7.33;1.70;;;10.20;99.90;;;;;;5027293;28;20463;-50
2022/02/17 04:19:35;;;;;;;9.13;2.70;;;10.30;99.90;;;;;;5049750;28;20550;-49
2022/02/17 04:22:14;;;;;;;6.27;1.73;;;10.30;99.90;;;;;;5049716;28;20438;-50
2022/02/17 04:24:46;;;;;;;5.10;1.93;;;11.50;99.90;;;;;;5049529;28;21072;-50
2022/02/17 04:27:15;;;;;;;7.73;2.47;;;10.40;99.90;;;;;;5049588;28;20865;-50
2022/02/17 04:29:54;;;;;;;8.40;2.20;;;10.50;99.90;;;;;;5049185;28;20934;-50
2022/02/17 04:32:23;;;;;;;8.50;3.40;;;10.50;99.90;;;;;;5049570;28;20482;-50
2022/02/17 04:34:50;;;;;;;15.90;2.70;;;10.60;99.90;;;;;;5052375;28;20477;-50
2022/02/17 04:37:18;;;;;;;5.33;1.57;;;10.60;99.90;;;;;;5052460;28;20471;-50
2022/02/17 04:39:44;;;;;;;4.60;1.23;;;10.60;99.90;;;;;;5052150;28;20487;-50
2022/02/17 04:42:20;;;;;;;6.80;1.00;;;10.40;99.90;;;;;;5075903;22;20505;-45
2022/02/17 04:44:52;;;;;;;3.37;0.90;;;10.20;99.90;;;;;;5036130;28;20446;-43
2022/02/17 04:47:19;;;;;;;3.70;0.90;;;10.00;99.90;;;;;;5053954;28;20402;-46
2022/02/17 04:49:48;;;;;;;3.60;1.00;;;9.80;99.90;;;;;;5035488;28;20525;-45
2022/02/17 04:52:17;;;;;;;1.63;0.77;;;9.60;99.90;;;;;;5041486;28;20449;-43
2022/02/17 04:54:44;;;;;;;4.10;1.03;;;9.60;99.90;;;;;;5052357;28;20823;-43
2022/02/17 04:57:13;;;;;;;2.40;0.97;;;9.50;99.90;;;;;;5052347;28;20431;-44
2022/02/17 04:59:40;;;;;;;3.60;1.20;;;9.60;99.90;;;;;;5051842;28;20433;-43
2022/02/17 05:02:07;;;;;;;4.27;1.83;;;9.40;99.90;;;;;;5053593;28;20452;-43
2022/02/17 05:04:54;;;;;;;4.57;1.30;;;9.40;99.90;;;;;;5052028;28;20447;-43
2022/02/17 05:07:23;;;;;;;5.23;1.23;;;9.40;99.90;;;;;;5052163;28;20469;-42
2022/02/17 05:09:50;;;;;;;4.20;0.90;;;9.40;99.90;;;;;;5053366;28;20534;-44
2022/02/17 05:12:17;;;;;;;3.90;1.10;;;9.40;99.90;;;;;;5053385;28;20977;-45
2022/02/17 05:14:44;;;;;;;5.03;1.37;;;9.40;99.90;;;;;;5052148;28;20956;-43
2022/02/17 05:17:15;;;;;;;4.40;1.70;;;9.30;99.90;;;;;;5051788;28;20526;-43
2022/02/17 05:19:42;;;;;;;4.93;1.73;;;9.30;99.90;;;;;;5051348;28;20911;-43
2022/02/17 05:22:20;;;;;;;6.27;1.30;;;9.30;99.90;;;;;;5052314;28;20541;-43
2022/02/17 05:25:06;;;;;;;3.17;1.50;;;9.30;99.90;;;;;;5053329;28;20549;-44
2022/02/17 05:27:44;;;;;;;5.33;1.90;;;9.30;99.90;;;;;;5051833;28;20450;-45
2022/02/17 05:30:41;;;;;;;6.47;1.73;;;9.30;99.90;;;;;;5033216;28;20450;-44
2022/02/17 05:33:35;;;;;;;3.33;1.57;;;9.30;99.90;;;;;;5051545;28;20482;-45
2022/02/17 05:36:15;;;;;;;9.30;1.90;;;9.30;99.90;;;;;;5051619;28;20461;-45
2022/02/17 05:39:01;;;;;;;5.83;1.80;;;9.30;99.90;;;;;;5051469;28;20877;-46
2022/02/17 05:41:38;;;;;;;8.20;1.97;;;9.30;99.90;;;;;;5052575;28;20459;-44
2022/02/17 05:44:06;;;;;;;4.70;1.67;;;9.20;99.90;;;;;;5052538;28;20442;-44
2022/02/17 05:46:32;;;;;;;5.40;2.07;;;9.20;99.90;;;;;;5052585;28;20798;-44
2022/02/17 05:48:59;;;;;;;7.20;2.03;;;9.10;99.90;;;;;;5052038;28;20445;-45
2022/02/17 05:51:26;;;;;;;8.13;2.47;;;9.10;99.90;;;;;;5052470;28;20939;-43
2022/02/17 05:53:53;;;;;;;7.57;2.13;;;9.10;99.90;;;;;;5052246;28;20482;-44
2022/02/17 05:56:21;;;;;;;9.50;3.00;;;9.10;99.90;;;;;;5052472;28;20478;-44
2022/02/17 05:58:47;;;;;;;8.70;2.80;;;9.20;99.90;;;;;;5052174;28;20446;-45
2022/02/17 06:01:14;;;;;;;5.03;2.30;;;9.00;99.90;;;;;;5052098;28;20496;-45
2022/02/17 06:03:40;;;;;;;6.90;2.30;;;9.00;99.90;;;;;;5052272;28;20979;-44
2022/02/17 06:06:07;;;;;;;7.60;2.13;;;9.00;99.90;;;;;;5052384;28;20435;-44
2022/02/17 06:08:34;;;;;;;8.10;3.23;;;9.00;99.90;;;;;;5051797;28;20434;-43
2022/02/17 06:11:00;;;;;;;10.10;2.90;;;9.00;99.90;;;;;;5050917;28;20545;-43
2022/02/17 06:13:28;;;;;;;9.40;3.70;;;9.00;99.90;;;;;;5052078;28;20553;-46
2022/02/17 06:15:55;;;;;;;4.90;1.90;;;9.00;99.90;;;;;;5051788;28;20784;-46
2022/02/17 06:18:22;;;;;;;8.03;2.53;;;9.00;99.90;;;;;;5050102;28;20500;-46
2022/02/17 06:20:48;;;;;;;7.70;2.50;;;9.00;99.90;;;;;;5051682;28;20753;-43
2022/02/17 06:23:15;;;;;;;8.13;3.33;;;9.10;99.90;;;;;;5051658;28;20497;-47
2022/02/17 06:25:42;;;;;;;9.43;2.70;;;9.20;99.90;;;;;;5049869;28;20501;-45
2022/02/17 06:28:08;;;;;;;8.97;2.90;;;9.20;99.90;;;;;;5051105;28;20435;-47
2022/02/17 06:30:36;;;;;;;8.33;2.77;;;9.30;99.90;;;;;;5051634;28;20441;-42
2022/02/17 06:33:03;;;;;;;9.43;2.60;;;9.30;99.90;;;;;;5051362;28;20433;-46
2022/02/17 06:35:33;;;;;;;10.20;1.80;;;9.30;99.90;;;;;;5051317;28;20456;-43
2022/02/17 06:38:00;;;;;;;10.97;3.13;;;9.30;99.90;;;;;;5051069;28;20458;-47
2022/02/17 06:40:27;;;;;;;9.17;3.03;;;9.30;99.90;;;;;;5051390;28;20861;-43
2022/02/17 06:42:54;;;;;;;12.57;4.30;;;9.40;99.90;;;;;;5051045;28;20940;-45
2022/02/17 06:45:22;;;;;;;9.00;2.60;;;9.40;99.90;;;;;;5051576;28;20824;-43
2022/02/17 06:47:50;;;;;;;8.77;3.60;;;9.40;99.90;;;;;;5051400;28;20899;-43
2022/02/17 06:50:17;;;;;;;12.23;2.83;;;9.40;99.90;;;;;;5051058;28;20441;-44
2022/02/17 06:52:44;;;;;;;6.17;2.40;;;9.50;99.90;;;;;;5050976;28;20572;-46
2022/02/17 06:55:12;;;;;;;5.90;2.40;;;9.50;99.90;;;;;;5051338;28;20479;-44
2022/02/17 06:57:39;;;;;;;11.73;2.83;;;9.50;99.90;;;;;;5051602;28;20445;-44
2022/02/17 07:00:07;;;;;;;6.60;2.20;;;9.50;99.90;;;;;;5050907;28;20432;-42
2022/02/17 07:02:33;;;;;;;12.33;2.83;;;9.50;99.90;;;;;;5050852;28;20447;-43
2022/02/17 07:05:02;;;;;;;7.60;2.87;;;9.60;99.90;;;;;;5049449;28;21041;-44
2022/02/17 07:07:29;;;;;;;12.30;3.03;;;9.50;99.90;;;;;;5051163;28;20851;-43
2022/02/17 07:09:57;;;;;;;9.83;3.00;;;9.50;99.90;;;;;;5050717;28;20478;-42
2022/02/17 07:12:23;;;;;;;7.80;3.60;;;9.60;99.90;;;;;;5051292;28;20447;-43
2022/02/17 07:14:51;;;;;;;11.07;2.90;;;9.60;99.90;;;;;;5051252;28;20478;-45
2022/02/17 07:17:20;;;;;;;8.87;3.00;;;9.60;99.90;;;;;;5051042;28;20420;-44
2022/02/17 07:19:47;;;;;;;8.00;2.77;;;9.70;99.90;;;;;;5051052;28;20409;-47
2022/02/17 07:22:14;;;;;;;9.17;2.50;;;9.70;99.90;;;;;;5051335;28;20534;-45
2022/02/17 07:24:41;;;;;;;11.03;2.87;;;9.80;99.90;;;;;;5050544;28;20458;-44
2022/02/17 07:27:09;;;;;;;10.37;2.90;;;9.80;99.90;;;;;;5051294;28;20439;-43
2022/02/17 07:29:36;;;;;;;7.03;2.70;;;9.80;99.90;;;;;;5053204;28;20442;-44
2022/02/17 07:32:04;;;;;;;7.60;2.33;;;9.80;99.90;;;;;;5055116;28;20450;-43
2022/02/17 07:34:30;;;;;;;9.03;2.80;;;9.80;99.60;;;;;;5054835;28;20539;-43
2022/02/17 07:36:57;;;;;;;13.77;2.90;;;9.90;99.80;;;;;;5054807;28;20498;-45
2022/02/17 07:39:27;;;;;;;10.00;3.30;;;9.90;99.30;;;;;;5054530;28;20436;-43
2022/02/17 07:41:54;;;;;;;14.83;3.40;;;9.90;99.00;;;;;;5054681;28;21017;-45
2022/02/17 07:44:25;;;;;;;13.63;3.40;;;10.00;98.30;;;;;;5054816;28;20560;-43
2022/02/17 07:46:52;;;;;;;11.50;2.67;;;10.10;98.20;;;;;;5054813;28;20447;-43
2022/02/17 07:49:19;;;;;;;10.17;2.40;;;10.20;98.20;;;;;;5054750;28;20448;-45
2022/02/17 07:51:45;;;;;;;13.20;3.07;;;10.30;97.80;;;;;;5054612;28;20512;-46
2022/02/17 07:54:12;;;;;;;6.60;4.03;;;10.30;97.20;;;;;;5054794;28;20479;-44
2022/02/17 07:56:41;;;;;;;8.47;2.80;;;10.40;97.00;;;;;;5054255;28;20948;-42
2022/02/17 07:59:08;;;;;;;14.10;3.80;;;10.50;96.20;;;;;;5054631;28;20891;-44
2022/02/17 08:01:35;;;;;;;13.37;3.40;;;10.60;96.40;;;;;;5054329;28;20450;-43
2022/02/17 08:04:01;;;;;;;15.27;3.27;;;10.60;95.80;;;;;;5054213;28;20406;-43
2022/02/17 08:06:28;;;;;;;8.80;2.00;;;10.70;95.70;;;;;;5054566;28;20439;-45
2022/02/17 08:08:54;;;;;;;11.00;2.53;;;10.70;94.90;;;;;;5054268;28;20939;-43
2022/02/17 08:11:21;;;;;;;7.97;2.47;;;10.70;95.00;;;;;;5054509;28;20900;-45
2022/02/17 08:13:49;;;;;;;11.93;3.20;;;10.60;94.40;;;;;;5054395;28;20608;-45
2022/02/17 08:16:15;;;;;;;8.03;2.70;;;10.50;94.70;;;;;;5054216;28;20433;-44
2022/02/17 08:18:42;;;;;;;7.77;2.10;;;10.60;94.10;;;;;;5053590;28;20833;-45
2022/02/17 08:21:09;;;;;;;10.67;3.00;;;10.60;94.10;;;;;;5054218;28;20418;-44
2022/02/17 08:23:36;;;;;;;15.67;3.50;;;10.60;94.10;;;;;;5054061;28;20471;-45
2022/02/17 08:26:03;;;;;;;7.00;3.00;;;10.70;94.60;;;;;;5054220;28;20910;-43
2022/02/17 08:28:31;;;;;;;9.00;2.73;;;10.70;94.60;;;;;;5053762;28;20531;-44
2022/02/17 08:30:59;;;;;;;9.87;2.27;;;10.70;94.10;;;;;;5054156;28;20426;-43
2022/02/17 08:33:25;;;;;;;11.53;3.20;;;10.70;93.70;;;;;;5053284;28;20459;-45
2022/02/17 08:35:52;;;;;;;8.57;3.33;;;10.70;94.00;;;;;;5053931;28;20992;-44
2022/02/17 08:38:19;;;;;;;9.30;2.57;;;10.70;94.10;;;;;;5053369;28;20785;-44
2022/02/17 08:40:46;;;;;;;9.07;3.60;;;10.70;93.80;;;;;;5052419;28;20451;-45
2022/02/17 08:43:13;;;;;;;13.60;3.17;;;10.70;93.50;;;;;;5053730;28;20474;-44
2022/02/17 08:45:42;;;;;;;8.57;3.20;;;10.70;93.60;;;;;;5053547;28;20482;-45
2022/02/17 08:48:11;;;;;;;10.50;2.50;;;10.80;93.80;;;;;;5053783;28;20436;-47
2022/02/17 08:50:39;;;;;;;7.17;2.60;;;10.90;93.80;;;;;;5053882;28;20419;-45
2022/02/17 08:53:06;;;;;;;12.33;2.97;;;10.90;93.80;;;;;;5053651;28;20517;-45
2022/02/17 08:55:32;;;;;;;5.83;2.13;;;10.90;93.40;;;;;;5053693;28;20472;-44
2022/02/17 08:57:59;;;;;;;8.57;2.60;;;10.90;93.80;;;;;;5053226;28;20444;-46
2022/02/17 09:00:26;;;;;;;11.43;2.57;;;11.00;93.90;;;;;;5053127;28;20448;-44
2022/02/17 09:02:53;;;;;;;7.13;2.60;;;11.00;93.50;;;;;;5053396;28;20805;-44
2022/02/17 09:05:21;;;;;;;7.73;2.30;;;11.00;93.50;;;;;;5053659;28;20419;-45
2022/02/17 09:07:47;;;;;;;10.10;3.37;;;11.00;93.30;;;;;;5053233;28;20781;-45
2022/02/17 09:10:14;;;;;;;9.33;2.50;;;11.00;93.30;;;;;;5052562;28;20407;-45
2022/02/17 09:12:40;;;;;;;7.07;2.50;;;11.00;93.60;;;;;;5052783;28;20458;-44
2022/02/17 09:15:09;;;;;;;12.83;2.87;;;11.00;93.40;;;;;;5052975;28;20952;-43
2022/02/17 09:17:36;;;;;;;8.03;2.20;;;11.00;93.20;;;;;;5052458;28;20461;-47
2022/02/17 09:20:03;;;;;;;7.67;2.50;;;11.00;93.20;;;;;;5050330;28;20523;-44
2022/02/17 09:22:31;;;;;;;7.63;2.90;;;11.00;93.20;;;;;;5050951;28;20451;-47
2022/02/17 09:24:57;;;;;;;7.07;2.50;;;11.10;93.50;;;;;;5052734;28;20936;-45
2022/02/17 09:27:24;;;;;;;7.00;2.00;;;11.10;93.60;;;;;;5052678;28;20447;-44
2022/02/17 09:29:51;;;;;;;8.70;2.20;;;11.10;93.80;;;;;;5053016;28;20447;-45
2022/02/17 09:32:17;;;;;;;8.50;2.30;;;11.00;93.70;;;;;;5053116;28;20774;-44
2022/02/17 09:34:45;;;;;;;7.53;2.17;;;11.10;93.70;;;;;;5052303;28;20478;-46
2022/02/17 09:37:12;;;;;;;7.17;2.00;;;11.10;93.60;;;;;;5052742;28;20489;-44
2022/02/17 09:39:40;;;;;;;8.60;2.23;;;11.10;93.70;;;;;;5067088;28;20453;-45
2022/02/17 09:42:07;;;;;;;5.10;1.97;;;11.20;93.90;;;;;;5051867;28;20445;-45
2022/02/17 09:44:35;;;;;;;6.53;1.90;;;11.10;93.90;;;;;;5051394;28;20448;-44
2022/02/17 09:47:03;;;;;;;8.20;2.30;;;11.10;93.80;;;;;;5052653;28;20463;-44
2022/02/17 09:49:31;;;;;;;11.53;5.07;;;11.10;93.80;;;;;;5052175;28;20800;-44
2022/02/17 09:51:58;;;;;;;10.30;2.30;;;11.10;94.30;;;;;;5051472;28;20983;-44
2022/02/17 09:54:25;;;;;;;8.07;2.63;;;11.10;94.50;;;;;;5052140;28;20930;-45
2022/02/17 09:56:53;;;;;;;8.07;2.37;;;11.10;94.90;;;;;;5052339;28;20430;-44
2022/02/17 09:59:20;;;;;;;4.80;3.07;;;11.00;95.00;;;;;;5051896;28;20417;-45
2022/02/17 10:01:55;;;;;;;7.50;2.20;;;11.00;95.70;;;;;;5052175;28;20961;-45
2022/02/17 10:04:24;;;;;;;4.60;1.80;;;11.00;96.60;;;;;;5050925;28;20444;-43
2022/02/17 10:06:53;;;;;;;10.60;2.40;;;10.90;96.80;;;;;;5051489;28;20440;-44
2022/02/17 10:09:21;;;;;;;6.47;2.30;;;10.90;97.10;;;;;;5050920;28;20516;-44
2022/02/17 10:11:51;;;;;;;7.37;2.40;;;10.90;97.30;;;;;;5051650;28;20447;-44
2022/02/17 10:14:20;;;;;;;5.20;1.90;;;10.80;96.90;;;;;;5051677;28;20508;-44
2022/02/17 10:16:55;;;;;;;6.30;2.27;;;10.80;97.20;;;;;;5051078;28;20462;-44
2022/02/17 10:19:24;;;;;;;4.93;2.00;;;10.80;97.40;;;;;;5051033;28;20412;-43
2022/02/17 10:21:50;;;;;;;17.67;4.67;;;10.80;97.20;;;;;;5052916;28;20460;-43
2022/02/17 10:24:34;;;;;;;6.20;2.40;;;10.80;97.60;;;;;;5051274;28;20910;-44
2022/02/17 10:27:03;;;;;;;9.93;2.40;;;10.80;97.50;;;;;;5051974;28;20445;-43
2022/02/17 10:29:31;;;;;;;12.37;2.30;;;10.80;97.50;;;;;;5051509;28;20453;-45
2022/02/17 10:32:12;;;;;;;4.20;2.07;;;10.80;97.30;;;;;;5052436;28;20450;-46
2022/02/17 10:34:39;;;;;;;5.57;1.97;;;10.80;97.30;;;;;;5051352;28;20422;-46
2022/02/17 10:37:06;;;;;;;7.47;2.67;;;10.80;97.40;;;;;;5050182;28;20428;-44
2022/02/17 10:39:36;;;;;;;7.50;2.00;;;10.80;97.40;;;;;;5051054;28;20447;-45
2022/02/17 10:42:06;;;;;;;4.20;1.87;;;10.80;97.60;;;;;;5083659;22;20490;-53
2022/02/17 10:44:36;;;;;;;10.30;2.10;;;10.90;97.20;;;;;;5111814;28;20438;-51
2022/02/17 10:47:17;;;;;;;7.40;2.37;;;10.80;97.20;;;;;;5112020;28;20442;-51
2022/02/17 10:49:46;;;;;;;9.27;2.30;;;10.90;97.10;;;;;;5111555;28;20920;-51
2022/02/17 10:52:13;;;;;;;12.23;3.47;;;10.90;97.20;;;;;;5111695;28;20471;-52
2022/02/17 10:54:40;;;;;;;6.70;2.20;;;10.90;97.40;;;;;;5111864;28;20449;-51
2022/02/17 10:57:11;;;;;;;7.70;2.33;;;10.90;97.30;;;;;;5111857;28;20419;-50
2022/02/17 11:02:25;;;;;;;5.60;1.80;;;10.80;97.50;;;;;;5091164;28;20468;-52
2022/02/17 11:04:51;;;;;;;7.23;2.70;;;10.80;97.80;;;;;;5090205;28;20430;-52
2022/02/17 11:07:19;;;;;;;5.70;2.40;;;10.70;97.90;;;;;;5090853;28;20851;-51
2022/02/17 11:09:46;;;;;;;7.70;2.03;;;10.70;97.70;;;;;;5104944;28;20415;-51
2022/02/17 11:12:14;;;;;;;8.40;2.20;;;10.80;97.70;;;;;;5111553;28;20527;-52
2022/02/17 11:14:44;;;;;;;8.10;2.33;;;10.70;97.60;;;;;;5112002;28;20428;-51
2022/02/17 11:17:12;;;;;;;5.03;1.73;;;10.80;97.50;;;;;;5111838;28;20425;-50
2022/02/17 11:19:41;;;;;;;3.50;1.67;;;10.80;97.00;;;;;;5111381;28;20433;-50
2022/02/17 11:22:07;;;;;;;7.30;1.67;;;10.70;97.10;;;;;;5111445;28;20448;-51
2022/02/17 11:24:47;;;;;;;5.17;1.70;;;10.60;97.10;;;;;;5111457;28;20414;-52
2022/02/17 11:27:14;;;;;;;10.83;2.00;;;10.60;97.20;;;;;;5111882;28;20403;-51
2022/02/17 11:29:43;;;;;;;4.87;1.90;;;10.60;97.70;;;;;;5091241;28;20425;-52
2022/02/17 11:32:14;;;;;;;9.57;2.42;;;10.70;98.20;;;;;;5109781;28;20788;-51
2022/02/17 11:34:44;;;;;;;4.67;2.27;;;11.10;98.10;;;;;;5098105;28;20247;-51
2022/02/17 11:37:33;;;;;;;6.23;2.40;;;11.10;97.90;;;;;;5091256;28;20513;-51
2022/02/17 11:40:00;;;;;;;5.23;2.10;;;11.10;97.90;;;;;;5090733;28;20429;-51
2022/02/17 11:42:27;;;;;;;7.03;2.50;;;11.20;97.90;;;;;;5090978;28;21009;-52
2022/02/17 11:45:09;;;;;;;7.60;3.50;;;11.20;98.10;;;;;;5094703;28;20927;-52
2022/02/17 11:48:02;;;;;;;4.47;2.33;;;11.20;98.40;;;;;;5111648;28;20779;-51
2022/02/17 11:50:33;;;;;;;5.17;1.70;;;11.20;98.50;;;;;;5092788;28;20456;-51
2022/02/17 11:53:23;;;;;;;6.67;1.73;;;11.10;98.30;;;;;;5111040;28;20495;-52
2022/02/17 11:55:50;;;;;;;5.77;2.20;;;10.90;98.10;;;;;;5089466;28;20463;-51
2022/02/17 11:58:44;;;;;;;9.80;2.53;;;11.30;98.00;;;;;;5090690;28;20444;-50
2022/02/17 12:01:37;;;;;;;6.73;1.33;;;11.10;97.80;;;;;;5101398;28;20770;-51
2022/02/17 12:04:08;;;;;;;10.70;2.00;;;11.00;97.60;;;;;;5110831;28;20886;-51
2022/02/17 12:06:38;;;;;;;6.13;2.50;;;11.00;97.80;;;;;;5111166;28;20536;-52
2022/02/17 12:09:06;;;;;;;8.47;1.33;;;11.00;97.90;;;;;;5110308;28;20427;-51
2022/02/17 12:11:36;;;;;;;8.70;2.50;;;11.00;97.90;;;;;;5111103;28;20433;-51
2022/02/17 12:14:05;;;;;;;6.20;1.40;;;11.00;98.20;;;;;;5110605;28;20485;-51
2022/02/17 12:16:41;;;;;;;8.30;1.60;;;11.00;98.40;;;;;;5114100;28;20516;-52
2022/02/17 12:19:12;;;;;;;4.50;1.30;;;10.90;98.60;;;;;;5113921;28;20399;-52
2022/02/17 12:21:41;;;;;;;6.27;1.50;;;10.80;98.00;;;;;;5114540;28;20437;-52
2022/02/17 12:24:09;;;;;;;2.37;1.30;;;10.80;98.00;;;;;;5114468;28;20485;-52
2022/02/17 12:26:43;;;;;;;7.40;4.63;;;10.90;98.10;;;;;;5114530;28;20517;-51
2022/02/17 12:29:20;;;;;;;12.20;2.00;;;10.90;98.20;;;;;;5098785;28;20937;-50
2022/02/17 12:31:49;;;;;;;4.87;1.83;;;11.00;98.20;;;;;;5093238;28;20427;-52
2022/02/17 12:34:17;;;;;;;4.30;1.30;;;11.00;98.00;;;;;;5104647;28;20438;-52
2022/02/17 12:36:43;;;;;;;10.67;1.70;;;11.00;98.20;;;;;;5114386;28;20479;-51
2022/02/17 12:39:10;;;;;;;6.97;2.37;;;11.10;98.50;;;;;;5113965;28;20958;-51
2022/02/17 12:41:37;;;;;;;5.00;1.57;;;11.00;98.70;;;;;;5114063;28;20476;-52
2022/02/17 12:44:06;;;;;;;5.83;1.63;;;11.00;98.90;;;;;;5113964;28;20456;-51
2022/02/17 12:46:32;;;;;;;3.87;1.40;;;11.00;99.40;;;;;;5114070;28;20518;-52
2022/02/17 12:49:07;;;;;;;4.57;1.43;;;10.90;99.30;;;;;;5113508;28;20794;-53
2022/02/17 12:51:36;;;;;;;2.50;1.00;;;10.70;99.40;;;;;;5114040;28;20443;-52
2022/02/17 12:54:04;;;;;;;3.40;1.47;;;10.70;99.70;;;;;;5113793;28;20412;-51
2022/02/17 12:56:32;;;;;;;2.97;1.20;;;10.60;99.90;;;;;;5113324;28;20480;-51
2022/02/17 12:59:09;;;;;;;3.83;1.43;;;10.50;99.90;;;;;;5112520;28;20438;-52
2022/02/17 13:01:39;;;;;;;3.10;1.40;;;10.50;99.90;;;;;;5113384;28;20441;-51